createdAt,value
2019-02-23T00:00:58.861Z,1004.26
2019-02-23T00:01:58.798Z,1004.20
2019-02-23T00:02:58.738Z,1004.28
2019-02-23T00:03:58.698Z,1004.32
2019-02-23T00:04:58.619Z,1004.35
2019-02-23T00:05:58.560Z,1004.37
2019-02-23T00:06:58.501Z,1004.37
2019-02-23T00:07:58.439Z,1004.37
2019-02-23T00:08:58.379Z,1004.37
2019-02-23T00:09:58.320Z,1004.38
2019-02-23T00:10:58.261Z,1004.41
2019-02-23T00:11:58.199Z,1004.42
2019-02-23T00:12:58.141Z,1004.40
2019-02-23T00:13:58.082Z,1004.42
2019-02-23T00:14:58.021Z,1004.41
2019-02-23T00:15:57.965Z,1004.45
2019-02-23T00:16:57.900Z,1004.44
2019-02-23T00:17:57.841Z,1004.48
2019-02-23T00:18:57.783Z,1004.49
2019-02-23T00:19:57.725Z,1004.47
2019-02-23T00:20:57.661Z,1004.45
2019-02-23T00:21:57.602Z,1004.43
2019-02-23T00:22:57.540Z,1004.43
2019-02-23T00:23:57.481Z,1004.43
2019-02-23T00:24:57.422Z,1004.40
2019-02-23T00:25:57.363Z,1004.46
2019-02-23T00:26:57.304Z,1004.47
2019-02-23T00:27:57.241Z,1004.48
2019-02-23T00:28:57.182Z,1004.51
2019-02-23T00:29:57.124Z,1004.50
2019-02-23T00:30:57.062Z,1004.53
2019-02-23T00:31:57.003Z,1004.54
2019-02-23T00:32:56.944Z,1004.55
2019-02-23T00:33:56.883Z,1004.53
2019-02-23T00:34:56.822Z,1004.49
2019-02-23T00:35:56.766Z,1004.53
2019-02-23T00:36:56.703Z,1004.51
2019-02-23T00:37:56.645Z,1004.49
2019-02-23T00:38:56.583Z,1004.44
2019-02-23T00:39:56.523Z,1004.45
2019-02-23T00:40:56.463Z,1004.48
2019-02-23T00:41:56.403Z,1004.47
2019-02-23T00:42:56.343Z,1004.46
2019-02-23T00:43:56.287Z,1004.44
2019-02-23T00:44:56.227Z,1004.46
2019-02-23T00:45:56.167Z,1004.43
2019-02-23T00:46:56.104Z,1004.44
2019-02-23T00:47:56.047Z,1004.45
2019-02-23T00:48:55.987Z,1004.41
2019-02-23T00:49:55.926Z,1004.43
2019-02-23T00:50:55.863Z,1004.37
2019-02-23T00:51:55.809Z,1004.43
2019-02-23T00:52:55.744Z,1004.39
2019-02-23T00:53:55.685Z,1004.41
2019-02-23T00:54:55.625Z,1004.40
2019-02-23T00:55:55.565Z,1004.39
2019-02-23T00:56:55.505Z,1004.38
2019-02-23T00:57:55.446Z,1004.40
2019-02-23T00:58:55.384Z,1004.39
2019-02-23T00:59:55.324Z,1004.39
2019-02-23T01:00:55.265Z,1004.42
2019-02-23T01:01:55.207Z,1004.43
2019-02-23T01:02:55.146Z,1004.45
2019-02-23T01:03:55.084Z,1004.40
2019-02-23T01:04:55.027Z,1004.39
2019-02-23T01:05:54.967Z,1004.38
2019-02-23T01:06:54.911Z,1004.37
2019-02-23T01:07:54.845Z,1004.40
2019-02-23T01:08:54.785Z,1004.38
2019-02-23T01:09:54.725Z,1004.40
2019-02-23T01:10:58.061Z,1004.38
2019-02-23T01:11:54.605Z,1004.34
2019-02-23T01:12:54.545Z,1004.34
2019-02-23T01:13:54.491Z,1004.35
2019-02-23T01:14:54.428Z,1004.36
2019-02-23T01:15:54.366Z,1004.38
2019-02-23T01:16:54.306Z,1004.34
2019-02-23T01:17:54.245Z,1004.33
2019-02-23T01:18:54.189Z,1004.35
2019-02-23T01:19:54.126Z,1004.30
2019-02-23T01:20:54.066Z,1004.31
2019-02-23T01:21:54.006Z,1004.28
2019-02-23T01:22:53.945Z,1004.25
2019-02-23T01:23:53.885Z,1004.25
2019-02-23T01:24:53.826Z,1004.33
2019-02-23T01:25:53.765Z,1004.29
2019-02-23T01:26:53.704Z,1004.33
2019-02-23T01:27:53.645Z,1004.31
2019-02-23T01:28:53.586Z,1004.29
2019-02-23T01:29:53.525Z,1004.27
2019-02-23T01:30:53.465Z,1004.31
2019-02-23T01:31:53.404Z,1004.28
2019-02-23T01:32:53.345Z,1004.26
2019-02-23T01:33:53.284Z,1004.27
2019-02-23T01:34:53.224Z,1004.27
2019-02-23T01:35:53.164Z,1004.27
2019-02-23T01:36:53.106Z,1004.24
2019-02-23T01:37:53.046Z,1004.26
2019-02-23T01:38:52.985Z,1004.28
2019-02-23T01:39:52.926Z,1004.30
2019-02-23T01:40:52.865Z,1004.27
2019-02-23T01:41:52.806Z,1004.28
2019-02-23T01:42:52.749Z,1004.31
2019-02-23T01:43:52.686Z,1004.31
2019-02-23T01:44:52.626Z,1004.29
2019-02-23T01:45:52.568Z,1004.30
2019-02-23T01:46:52.504Z,1004.25
2019-02-23T01:47:52.445Z,1004.24
2019-02-23T01:48:52.388Z,1004.20
2019-02-23T01:49:58.723Z,1004.20
2019-02-23T01:50:52.267Z,1004.23
2019-02-23T01:51:52.204Z,1004.22
2019-02-23T01:52:52.147Z,1004.18
2019-02-23T01:53:52.085Z,1004.11
2019-02-23T01:54:52.023Z,1004.20
2019-02-23T01:55:51.964Z,1004.17
2019-02-23T01:56:51.905Z,1004.07
2019-02-23T01:57:51.845Z,1004.10
2019-02-23T01:58:51.784Z,1004.04
2019-02-23T01:59:51.724Z,1004.06
2019-02-23T02:00:51.665Z,1004.06
2019-02-23T02:01:51.605Z,1004.10
2019-02-23T02:02:51.546Z,1004.16
2019-02-23T02:03:51.483Z,1004.19
2019-02-23T02:04:51.429Z,1004.18
2019-02-23T02:05:51.364Z,1004.20
2019-02-23T02:06:51.305Z,1004.20
2019-02-23T02:07:51.248Z,1004.21
2019-02-23T02:08:51.184Z,1004.22
2019-02-23T02:09:51.123Z,1004.20
2019-02-23T02:10:51.062Z,1004.18
2019-02-23T02:11:51.006Z,1004.19
2019-02-23T02:12:50.947Z,1004.23
2019-02-23T02:13:50.883Z,1004.26
2019-02-23T02:14:50.824Z,1004.23
2019-02-23T02:15:50.763Z,1004.26
2019-02-23T02:16:50.703Z,1004.21
2019-02-23T02:17:50.642Z,1004.27
2019-02-23T02:18:50.582Z,1004.32
2019-02-23T02:19:50.524Z,1004.28
2019-02-23T02:20:50.462Z,1004.30
2019-02-23T02:21:50.405Z,1004.29
2019-02-23T02:22:50.341Z,1004.24
2019-02-23T02:23:50.284Z,1004.22
2019-02-23T02:24:50.222Z,1004.21
2019-02-23T02:25:50.163Z,1004.18
2019-02-23T02:26:50.102Z,1004.23
2019-02-23T02:27:50.041Z,1004.27
2019-02-23T02:28:49.980Z,1004.30
2019-02-23T02:29:49.921Z,1004.30
2019-02-23T02:30:49.861Z,1004.29
2019-02-23T02:31:49.801Z,1004.38
2019-02-23T02:32:49.743Z,1004.41
2019-02-23T02:33:49.681Z,1004.35
2019-02-23T02:34:49.625Z,1004.39
2019-02-23T02:35:49.560Z,1004.47
2019-02-23T02:36:49.499Z,1004.42
2019-02-23T02:37:49.451Z,1004.42
2019-02-23T02:38:49.383Z,1004.45
2019-02-23T02:39:49.319Z,1004.42
2019-02-23T02:40:49.265Z,1004.41
2019-02-23T02:41:49.200Z,1004.39
2019-02-23T02:42:49.139Z,1004.44
2019-02-23T02:43:49.081Z,1004.48
2019-02-23T02:44:49.021Z,1004.45
2019-02-23T02:45:48.961Z,1004.45
2019-02-23T02:46:48.899Z,1004.46
2019-02-23T02:47:48.841Z,1004.46
2019-02-23T02:48:48.777Z,1004.43
2019-02-23T02:49:48.719Z,1004.45
2019-02-23T02:50:48.657Z,1004.45
2019-02-23T02:51:48.602Z,1004.43
2019-02-23T02:52:48.537Z,1004.43
2019-02-23T02:53:48.478Z,1004.48
2019-02-23T02:54:48.418Z,1004.50
2019-02-23T02:55:48.357Z,1004.48
2019-02-23T02:56:48.296Z,1004.55
2019-02-23T02:57:48.238Z,1004.50
2019-02-23T02:58:48.175Z,1004.49
2019-02-23T02:59:48.118Z,1004.52
2019-02-23T03:00:48.055Z,1004.51
2019-02-23T03:01:47.995Z,1004.51
2019-02-23T03:02:47.935Z,1004.55
2019-02-23T03:03:47.874Z,1004.53
2019-02-23T03:04:47.815Z,1004.57
2019-02-23T03:05:47.755Z,1004.59
2019-02-23T03:06:47.693Z,1004.60
2019-02-23T03:07:47.633Z,1004.56
2019-02-23T03:08:47.574Z,1004.50
2019-02-23T03:09:47.515Z,1004.52
2019-02-23T03:10:47.456Z,1004.52
2019-02-23T03:11:47.397Z,1004.57
2019-02-23T03:12:47.340Z,1004.52
2019-02-23T03:13:47.274Z,1004.53
2019-02-23T03:14:47.214Z,1004.52
2019-02-23T03:15:47.153Z,1004.52
2019-02-23T03:16:47.094Z,1004.52
2019-02-23T03:17:47.032Z,1004.49
2019-02-23T03:18:46.970Z,1004.54
2019-02-23T03:19:46.911Z,1004.53
2019-02-23T03:20:46.853Z,1004.55
2019-02-23T03:21:46.798Z,1004.52
2019-02-23T03:22:46.729Z,1004.57
2019-02-23T03:23:46.675Z,1004.51
2019-02-23T03:24:46.612Z,1004.55
2019-02-23T03:25:46.551Z,1004.57
2019-02-23T03:26:46.491Z,1004.56
2019-02-23T03:27:46.429Z,1004.54
2019-02-23T03:28:46.373Z,1004.55
2019-02-23T03:29:46.309Z,1004.51
2019-02-23T03:30:46.256Z,1004.51
2019-02-23T03:31:46.188Z,1004.49
2019-02-23T03:32:46.128Z,1004.53
2019-02-23T03:33:46.076Z,1004.52
2019-02-23T03:34:46.007Z,1004.56
2019-02-23T03:35:45.947Z,1004.55
2019-02-23T03:36:45.887Z,1004.53
2019-02-23T03:37:45.826Z,1004.53
2019-02-23T03:38:45.768Z,1004.57
2019-02-23T03:39:45.708Z,1004.53
2019-02-23T03:40:45.647Z,1004.56
2019-02-23T03:41:45.586Z,1004.54
2019-02-23T03:42:45.528Z,1004.58
2019-02-23T03:43:45.465Z,1004.58
2019-02-23T03:44:45.405Z,1004.58
2019-02-23T03:45:45.344Z,1004.59
2019-02-23T03:46:45.286Z,1004.61
2019-02-23T03:47:45.223Z,1004.58
2019-02-23T03:48:45.165Z,1004.60
2019-02-23T03:49:45.103Z,1004.55
2019-02-23T03:50:49.101Z,1004.53
2019-02-23T03:51:45.019Z,1004.54
2019-02-23T03:52:44.925Z,1004.55
2019-02-23T03:53:44.862Z,1004.51
2019-02-23T03:54:44.801Z,1004.52
2019-02-23T03:55:44.741Z,1004.56
2019-02-23T03:56:44.683Z,1004.54
2019-02-23T03:57:44.621Z,1004.48
2019-02-23T03:58:44.561Z,1004.47
2019-02-23T03:59:44.500Z,1004.49
2019-02-23T04:00:44.439Z,1004.51
2019-02-23T04:01:44.384Z,1004.50
2019-02-23T04:02:44.319Z,1004.47
2019-02-23T04:03:44.261Z,1004.53
2019-02-23T04:04:44.198Z,1004.63
2019-02-23T04:05:44.138Z,1004.66
2019-02-23T04:06:44.077Z,1004.65
2019-02-23T04:07:44.016Z,1004.66
2019-02-23T04:08:43.956Z,1004.61
2019-02-23T04:09:43.900Z,1004.64
2019-02-23T04:10:43.835Z,1004.66
2019-02-23T04:11:43.780Z,1004.60
2019-02-23T04:12:43.740Z,1004.62
2019-02-23T04:13:43.655Z,1004.64
2019-02-23T04:14:43.617Z,1004.73
2019-02-23T04:15:43.535Z,1004.74
2019-02-23T04:16:43.473Z,1004.71
2019-02-23T04:17:43.414Z,1004.72
2019-02-23T04:18:43.354Z,1004.72
2019-02-23T04:19:43.293Z,1004.70
2019-02-23T04:20:43.231Z,1004.63
2019-02-23T04:21:43.173Z,1004.57
2019-02-23T04:22:43.110Z,1004.58
2019-02-23T04:23:43.049Z,1004.60
2019-02-23T04:24:43.099Z,1004.66
2019-02-23T04:25:42.929Z,1004.69
2019-02-23T04:26:42.870Z,1004.64
2019-02-23T04:27:42.810Z,1004.59
2019-02-23T04:28:42.748Z,1004.49
2019-02-23T04:29:42.693Z,1004.50
2019-02-23T04:30:42.630Z,1004.48
2019-02-23T04:31:42.576Z,1004.52
2019-02-23T04:32:42.509Z,1004.52
2019-02-23T04:33:42.446Z,1004.56
2019-02-23T04:34:42.385Z,1004.50
2019-02-23T04:35:42.324Z,1004.46
2019-02-23T04:36:42.265Z,1004.47
2019-02-23T04:37:42.206Z,1004.43
2019-02-23T04:38:42.142Z,1004.47
2019-02-23T04:39:42.091Z,1004.46
2019-02-23T04:40:42.027Z,1004.46
2019-02-23T04:41:41.962Z,1004.50
2019-02-23T04:42:41.901Z,1004.41
2019-02-23T04:43:44.217Z,1004.46
2019-02-23T04:44:41.782Z,1004.40
2019-02-23T04:45:41.721Z,1004.45
2019-02-23T04:46:41.661Z,1004.37
2019-02-23T04:47:41.603Z,1004.41
2019-02-23T04:48:41.539Z,1004.41
2019-02-23T04:49:41.478Z,1004.32
2019-02-23T04:50:41.419Z,1004.35
2019-02-23T04:51:41.357Z,1004.37
2019-02-23T04:52:41.297Z,1004.37
2019-02-23T04:53:41.237Z,1004.38
2019-02-23T04:54:41.206Z,1004.40
2019-02-23T04:55:41.115Z,1004.40
2019-02-23T04:56:41.058Z,1004.38
2019-02-23T04:57:40.998Z,1004.40
2019-02-23T04:58:40.933Z,1004.34
2019-02-23T04:59:40.878Z,1004.33
2019-02-23T05:00:40.821Z,1004.37
2019-02-23T05:01:40.754Z,1004.39
2019-02-23T05:02:40.692Z,1004.39
2019-02-23T05:03:40.631Z,1004.42
2019-02-23T05:04:40.573Z,1004.41
2019-02-23T05:05:40.514Z,1004.41
2019-02-23T05:06:40.450Z,1004.41
2019-02-23T05:07:40.390Z,1004.38
2019-02-23T05:08:40.334Z,1004.42
2019-02-23T05:09:40.284Z,1004.44
2019-02-23T05:10:40.209Z,1004.45
2019-02-23T05:11:40.148Z,1004.41
2019-02-23T05:12:40.093Z,1004.39
2019-02-23T05:13:40.027Z,1004.37
2019-02-23T05:14:39.966Z,1004.32
2019-02-23T05:15:39.904Z,1004.28
2019-02-23T05:16:39.846Z,1004.29
2019-02-23T05:17:39.786Z,1004.28
2019-02-23T05:18:39.724Z,1004.26
2019-02-23T05:19:39.664Z,1004.23
2019-02-23T05:20:39.641Z,1004.17
2019-02-23T05:21:39.543Z,1004.18
2019-02-23T05:22:39.482Z,1004.14
2019-02-23T05:23:39.429Z,1004.13
2019-02-23T05:24:39.362Z,1004.13
2019-02-23T05:25:39.303Z,1004.16
2019-02-23T05:26:39.240Z,1004.16
2019-02-23T05:27:39.179Z,1004.21
2019-02-23T05:28:39.120Z,1004.19
2019-02-23T05:29:39.059Z,1004.17
2019-02-23T05:30:38.996Z,1004.24
2019-02-23T05:31:38.937Z,1004.25
2019-02-23T05:32:38.877Z,1004.29
2019-02-23T05:33:38.815Z,1004.26
2019-02-23T05:34:38.755Z,1004.23
2019-02-23T05:35:38.696Z,1004.19
2019-02-23T05:36:38.636Z,1004.17
2019-02-23T05:37:38.573Z,1004.14
2019-02-23T05:38:38.523Z,1004.14
2019-02-23T05:39:38.456Z,1004.14
2019-02-23T05:40:38.418Z,1004.13
2019-02-23T05:41:38.331Z,1004.14
2019-02-23T05:42:38.270Z,1004.12
2019-02-23T05:43:38.214Z,1004.09
2019-02-23T05:44:38.148Z,1004.10
2019-02-23T05:45:38.091Z,1004.16
2019-02-23T05:46:38.027Z,1004.11
2019-02-23T05:47:37.968Z,1004.10
2019-02-23T05:48:37.906Z,1004.07
2019-02-23T05:49:37.846Z,1004.06
2019-02-23T05:50:37.786Z,1004.09
2019-02-23T05:51:39.062Z,1004.06
2019-02-23T05:52:37.664Z,1004.07
2019-02-23T05:53:37.611Z,1004.09
2019-02-23T05:54:37.542Z,1004.04
2019-02-23T05:55:37.482Z,1004.12
2019-02-23T05:56:37.421Z,1004.06
2019-02-23T05:57:37.363Z,1004.05
2019-02-23T05:58:37.300Z,1004.06
2019-02-23T05:59:37.348Z,1004.16
2019-02-23T06:00:37.183Z,1004.13
2019-02-23T06:01:37.119Z,1004.18
2019-02-23T06:02:37.059Z,1004.13
2019-02-23T06:03:36.996Z,1004.13
2019-02-23T06:04:36.939Z,1004.19
2019-02-23T06:05:36.882Z,1004.11
2019-02-23T06:06:36.817Z,1004.10
2019-02-23T06:07:36.754Z,1004.05
2019-02-23T06:08:36.694Z,1004.05
2019-02-23T06:09:36.634Z,1004.06
2019-02-23T06:10:36.572Z,1004.07
2019-02-23T06:11:36.512Z,1004.07
2019-02-23T06:12:36.451Z,1004.10
2019-02-23T06:13:36.391Z,1004.08
2019-02-23T06:14:36.335Z,1004.09
2019-02-23T06:15:36.270Z,1004.06
2019-02-23T06:16:36.212Z,1004.07
2019-02-23T06:17:36.152Z,1004.08
2019-02-23T06:18:36.088Z,1004.07
2019-02-23T06:19:36.032Z,1004.12
2019-02-23T06:20:35.967Z,1004.08
2019-02-23T06:21:35.906Z,1004.10
2019-02-23T06:22:35.845Z,1004.09
2019-02-23T06:23:35.784Z,1004.09
2019-02-23T06:24:35.725Z,1004.14
2019-02-23T06:25:35.664Z,1004.14
2019-02-23T06:26:35.602Z,1004.15
2019-02-23T06:27:35.540Z,1004.24
2019-02-23T06:28:35.483Z,1004.24
2019-02-23T06:29:35.420Z,1004.22
2019-02-23T06:30:35.362Z,1004.23
2019-02-23T06:31:35.298Z,1004.22
2019-02-23T06:32:35.237Z,1004.17
2019-02-23T06:33:35.177Z,1004.19
2019-02-23T06:34:35.116Z,1004.17
2019-02-23T06:35:35.057Z,1004.27
2019-02-23T06:36:34.998Z,1004.29
2019-02-23T06:37:34.936Z,1004.30
2019-02-23T06:38:34.872Z,1004.30
2019-02-23T06:39:34.826Z,1004.31
2019-02-23T06:40:34.758Z,1004.37
2019-02-23T06:41:34.692Z,1004.40
2019-02-23T06:42:34.631Z,1004.37
2019-02-23T06:43:34.573Z,1004.36
2019-02-23T06:44:34.510Z,1004.36
2019-02-23T06:45:34.448Z,1004.36
2019-02-23T06:46:34.391Z,1004.37
2019-02-23T06:47:34.326Z,1004.39
2019-02-23T06:48:34.266Z,1004.42
2019-02-23T06:49:34.207Z,1004.39
2019-02-23T06:50:34.147Z,1004.36
2019-02-23T06:51:34.085Z,1004.37
2019-02-23T06:52:34.024Z,1004.38
2019-02-23T06:53:33.968Z,1004.38
2019-02-23T06:54:33.904Z,1004.42
2019-02-23T06:55:33.841Z,1004.39
2019-02-23T06:56:33.781Z,1004.41
2019-02-23T06:57:33.720Z,1004.43
2019-02-23T06:58:33.658Z,1004.37
2019-02-23T06:59:33.598Z,1004.37
2019-02-23T07:00:33.538Z,1004.43
2019-02-23T07:01:33.477Z,1004.48
2019-02-23T07:02:33.415Z,1004.49
2019-02-23T07:03:33.356Z,1004.53
2019-02-23T07:04:33.297Z,1004.55
2019-02-23T07:05:33.235Z,1004.60
2019-02-23T07:06:33.175Z,1004.65
2019-02-23T07:07:33.112Z,1004.64
2019-02-23T07:08:33.051Z,1004.67
2019-02-23T07:09:32.994Z,1004.64
2019-02-23T07:10:32.935Z,1004.63
2019-02-23T07:11:32.868Z,1004.58
2019-02-23T07:12:32.813Z,1004.61
2019-02-23T07:13:32.746Z,1004.58
2019-02-23T07:14:32.688Z,1004.60
2019-02-23T07:15:32.626Z,1004.58
2019-02-23T07:16:32.564Z,1004.59
2019-02-23T07:17:32.505Z,1004.58
2019-02-23T07:18:32.443Z,1004.59
2019-02-23T07:19:32.387Z,1004.57
2019-02-23T07:20:43.469Z,1004.57
2019-02-23T07:21:32.261Z,1004.60
2019-02-23T07:22:33.758Z,1004.58
2019-02-23T07:23:32.139Z,1004.52
2019-02-23T07:24:32.078Z,1004.53
2019-02-23T07:25:32.018Z,1004.51
2019-02-23T07:26:31.957Z,1004.47
2019-02-23T07:27:31.898Z,1004.46
2019-02-23T07:28:31.838Z,1004.48
2019-02-23T07:29:31.773Z,1004.49
2019-02-23T07:30:31.714Z,1004.47
2019-02-23T07:31:31.651Z,1004.49
2019-02-23T07:32:31.594Z,1004.55
2019-02-23T07:33:33.063Z,1004.55
2019-02-23T07:34:31.542Z,1004.63
2019-02-23T07:35:31.412Z,1004.60
2019-02-23T07:36:31.349Z,1004.55
2019-02-23T07:37:31.289Z,1004.58
2019-02-23T07:38:31.226Z,1004.56
2019-02-23T07:39:31.166Z,1004.59
2019-02-23T07:40:31.105Z,1004.58
2019-02-23T07:41:31.046Z,1004.60
2019-02-23T07:42:30.983Z,1004.60
2019-02-23T07:43:30.934Z,1004.58
2019-02-23T07:44:30.863Z,1004.57
2019-02-23T07:45:30.801Z,1004.51
2019-02-23T07:46:30.740Z,1004.53
2019-02-23T07:47:30.679Z,1004.53
2019-02-23T07:48:30.623Z,1004.54
2019-02-23T07:49:30.558Z,1004.44
2019-02-23T07:50:30.499Z,1004.44
2019-02-23T07:51:30.436Z,1004.40
2019-02-23T07:52:30.375Z,1004.41
2019-02-23T07:53:30.383Z,1004.46
2019-02-23T07:54:30.254Z,1004.43
2019-02-23T07:55:30.192Z,1004.42
2019-02-23T07:56:30.131Z,1004.43
2019-02-23T07:57:30.072Z,1004.42
2019-02-23T07:58:30.010Z,1004.41
2019-02-23T07:59:29.949Z,1004.32
2019-02-23T08:00:29.889Z,1004.32
2019-02-23T08:01:29.827Z,1004.32
2019-02-23T08:02:29.766Z,1004.30
2019-02-23T08:03:29.708Z,1004.30
2019-02-23T08:04:29.645Z,1004.26
2019-02-23T08:05:29.586Z,1004.25
2019-02-23T08:06:29.522Z,1004.23
2019-02-23T08:07:29.461Z,1004.27
2019-02-23T08:08:29.403Z,1004.23
2019-02-23T08:09:29.341Z,1004.26
2019-02-23T08:10:29.280Z,1004.30
2019-02-23T08:11:29.218Z,1004.31
2019-02-23T08:12:29.159Z,1004.37
2019-02-23T08:13:29.104Z,1004.41
2019-02-23T08:14:29.035Z,1004.41
2019-02-23T08:15:28.977Z,1004.42
2019-02-23T08:16:28.913Z,1004.37
2019-02-23T08:17:28.856Z,1004.39
2019-02-23T08:18:28.794Z,1004.40
2019-02-23T08:19:28.734Z,1004.35
2019-02-23T08:20:28.671Z,1004.34
2019-02-23T08:21:28.610Z,1004.34
2019-02-23T08:22:37.041Z,1004.34
2019-02-23T08:23:28.492Z,1004.34
2019-02-23T08:24:28.427Z,1004.33
2019-02-23T08:25:28.370Z,1004.33
2019-02-23T08:26:28.305Z,1004.32
2019-02-23T08:27:28.243Z,1004.35
2019-02-23T08:28:28.190Z,1004.38
2019-02-23T08:29:28.125Z,1004.41
2019-02-23T08:30:28.062Z,1004.36
2019-02-23T08:31:28.003Z,1004.41
2019-02-23T08:32:27.941Z,1004.44
2019-02-23T08:33:27.881Z,1004.45
2019-02-23T08:34:27.820Z,1004.44
2019-02-23T08:35:27.759Z,1004.44
2019-02-23T08:36:27.697Z,1004.36
2019-02-23T08:37:27.637Z,1004.39
2019-02-23T08:38:27.650Z,1004.37
2019-02-23T08:39:27.515Z,1004.40
2019-02-23T08:40:27.453Z,1004.40
2019-02-23T08:41:27.392Z,1004.40
2019-02-23T08:42:27.332Z,1004.39
2019-02-23T08:43:27.271Z,1004.40
2019-02-23T08:44:27.212Z,1004.38
2019-02-23T08:45:27.156Z,1004.49
2019-02-23T08:46:27.089Z,1004.41
2019-02-23T08:47:27.027Z,1004.46
2019-02-23T08:48:26.983Z,1004.43
2019-02-23T08:49:26.907Z,1004.49
2019-02-23T08:50:26.844Z,1004.49
2019-02-23T08:51:26.782Z,1004.50
2019-02-23T08:52:26.725Z,1004.52
2019-02-23T08:53:26.665Z,1004.56
2019-02-23T08:54:26.605Z,1004.50
2019-02-23T08:55:26.541Z,1004.46
2019-02-23T08:56:26.478Z,1004.56
2019-02-23T08:57:26.421Z,1004.58
2019-02-23T08:58:26.357Z,1004.58
2019-02-23T08:59:26.299Z,1004.70
2019-02-23T09:00:26.236Z,1004.76
2019-02-23T09:01:26.175Z,1004.67
2019-02-23T09:02:26.113Z,1004.71
2019-02-23T09:03:26.052Z,1004.71
2019-02-23T09:04:25.992Z,1004.65
2019-02-23T09:05:25.933Z,1004.65
2019-02-23T09:06:25.870Z,1004.67
2019-02-23T09:07:25.813Z,1004.72
2019-02-23T09:08:25.751Z,1004.75
2019-02-23T09:09:25.694Z,1004.75
2019-02-23T09:10:25.633Z,1004.78
2019-02-23T09:11:25.565Z,1004.75
2019-02-23T09:12:25.506Z,1004.79
2019-02-23T09:13:25.447Z,1004.90
2019-02-23T09:14:25.383Z,1004.83
2019-02-23T09:15:25.328Z,1004.87
2019-02-23T09:16:25.265Z,1004.89
2019-02-23T09:17:25.205Z,1004.81
2019-02-23T09:18:25.139Z,1004.82
2019-02-23T09:19:25.079Z,1004.80
2019-02-23T09:20:29.034Z,1004.79
2019-02-23T09:21:24.962Z,1004.71
2019-02-23T09:22:24.896Z,1004.68
2019-02-23T09:23:24.835Z,1004.69
2019-02-23T09:24:24.775Z,1004.72
2019-02-23T09:25:24.714Z,1004.68
2019-02-23T09:26:24.654Z,1004.65
2019-02-23T09:27:24.595Z,1004.69
2019-02-23T09:28:24.530Z,1004.67
2019-02-23T09:29:24.471Z,1004.71
2019-02-23T09:30:24.408Z,1004.67
2019-02-23T09:31:24.350Z,1004.68
2019-02-23T09:32:24.294Z,1004.73
2019-02-23T09:33:24.226Z,1004.64
2019-02-23T09:34:24.165Z,1004.56
2019-02-23T09:35:24.104Z,1004.51
2019-02-23T09:36:24.045Z,1004.52
2019-02-23T09:37:23.985Z,1004.55
2019-02-23T09:38:23.922Z,1004.57
2019-02-23T09:39:23.870Z,1004.61
2019-02-23T09:40:23.799Z,1004.73
2019-02-23T09:41:23.739Z,1004.71
2019-02-23T09:42:23.682Z,1004.71
2019-02-23T09:43:23.620Z,1004.68
2019-02-23T09:44:23.559Z,1004.61
2019-02-23T09:45:23.497Z,1004.61
2019-02-23T09:46:23.435Z,1004.53
2019-02-23T09:47:23.374Z,1004.52
2019-02-23T09:48:23.320Z,1004.55
2019-02-23T09:49:23.253Z,1004.59
2019-02-23T09:50:23.195Z,1004.66
2019-02-23T09:51:23.131Z,1004.67
2019-02-23T09:52:23.070Z,1004.66
2019-02-23T09:53:23.014Z,1004.69
2019-02-23T09:54:22.949Z,1004.64
2019-02-23T09:55:22.887Z,1004.63
2019-02-23T09:56:22.826Z,1004.60
2019-02-23T09:57:22.766Z,1004.61
2019-02-23T09:58:22.705Z,1004.71
2019-02-23T09:59:22.645Z,1004.63
2019-02-23T10:00:22.584Z,1004.67
2019-02-23T10:01:22.523Z,1004.70
2019-02-23T10:02:22.462Z,1004.78
2019-02-23T10:03:22.400Z,1004.71
2019-02-23T10:04:22.339Z,1004.68
2019-02-23T10:05:22.279Z,1004.63
2019-02-23T10:06:22.217Z,1004.72
2019-02-23T10:07:22.159Z,1004.67
2019-02-23T10:08:22.100Z,1004.61
2019-02-23T10:09:22.037Z,1004.61
2019-02-23T10:10:21.975Z,1004.60
2019-02-23T10:11:21.918Z,1004.57
2019-02-23T10:12:21.852Z,1004.56
2019-02-23T10:13:21.793Z,1004.61
2019-02-23T10:14:21.731Z,1004.62
2019-02-23T10:15:21.670Z,1004.66
2019-02-23T10:16:21.609Z,1004.63
2019-02-23T10:17:21.549Z,1004.65
2019-02-23T10:18:21.487Z,1004.69
2019-02-23T10:19:21.426Z,1004.69
2019-02-23T10:20:21.366Z,1004.67
2019-02-23T10:21:21.310Z,1004.68
2019-02-23T10:22:21.246Z,1004.74
2019-02-23T10:23:22.391Z,1004.72
2019-02-23T10:24:21.124Z,1004.83
2019-02-23T10:25:21.064Z,1004.76
2019-02-23T10:26:21.000Z,1004.81
2019-02-23T10:27:20.942Z,1004.82
2019-02-23T10:28:20.880Z,1004.81
2019-02-23T10:29:20.819Z,1004.83
2019-02-23T10:30:20.759Z,1004.88
2019-02-23T10:31:20.696Z,1004.78
2019-02-23T10:32:20.635Z,1004.80
2019-02-23T10:33:20.575Z,1004.80
2019-02-23T10:34:20.514Z,1004.79
2019-02-23T10:35:20.454Z,1004.85
2019-02-23T10:36:20.393Z,1004.89
2019-02-23T10:37:20.331Z,1004.95
2019-02-23T10:38:20.271Z,1004.92
2019-02-23T10:39:20.209Z,1004.97
2019-02-23T10:40:20.153Z,1004.96
2019-02-23T10:41:20.088Z,1005.02
2019-02-23T10:42:20.027Z,1005.00
2019-02-23T10:43:19.969Z,1005.08
2019-02-23T10:44:19.906Z,1005.03
2019-02-23T10:45:19.844Z,1005.09
2019-02-23T10:46:19.783Z,1005.03
2019-02-23T10:47:19.723Z,1005.07
2019-02-23T10:48:19.667Z,1005.04
2019-02-23T10:49:19.603Z,1005.04
2019-02-23T10:50:19.540Z,1005.02
2019-02-23T10:51:19.480Z,1004.97
2019-02-23T10:52:19.421Z,1005.00
2019-02-23T10:53:19.365Z,1005.00
2019-02-23T10:54:19.297Z,1004.98
2019-02-23T10:55:19.236Z,1004.99
2019-02-23T10:56:19.175Z,1005.04
2019-02-23T10:57:19.115Z,1005.02
2019-02-23T10:58:19.054Z,1004.94
2019-02-23T10:59:18.993Z,1004.93
2019-02-23T11:00:18.931Z,1004.87
2019-02-23T11:01:18.874Z,1004.81
2019-02-23T11:02:18.812Z,1004.82
2019-02-23T11:03:18.749Z,1004.84
2019-02-23T11:04:18.690Z,1004.80
2019-02-23T11:05:18.630Z,1004.71
2019-02-23T11:06:18.567Z,1004.75
2019-02-23T11:07:18.511Z,1004.74
2019-02-23T11:08:18.447Z,1004.62
2019-02-23T11:09:18.391Z,1004.53
2019-02-23T11:10:18.324Z,1004.50
2019-02-23T11:11:18.264Z,1004.45
2019-02-23T11:12:18.203Z,1004.45
2019-02-23T11:13:18.142Z,1004.39
2019-02-23T11:14:18.082Z,1004.32
2019-02-23T11:15:18.995Z,1004.24
2019-02-23T11:16:17.959Z,1004.25
2019-02-23T11:17:17.901Z,1004.26
2019-02-23T11:18:17.838Z,1004.24
2019-02-23T11:19:17.781Z,1004.21
2019-02-23T11:20:17.717Z,1004.24
2019-02-23T11:21:17.657Z,1004.17
2019-02-23T11:22:17.594Z,1004.28
2019-02-23T11:23:17.535Z,1004.27
2019-02-23T11:24:18.426Z,1004.32
2019-02-23T11:25:17.413Z,1004.29
2019-02-23T11:26:17.352Z,1004.32
2019-02-23T11:27:17.291Z,1004.26
2019-02-23T11:28:17.231Z,1004.27
2019-02-23T11:29:17.170Z,1004.29
2019-02-23T11:30:17.109Z,1004.30
2019-02-23T11:31:17.055Z,1004.36
2019-02-23T11:32:16.987Z,1004.36
2019-02-23T11:33:16.927Z,1004.26
2019-02-23T11:34:16.870Z,1004.28
2019-02-23T11:35:17.579Z,1004.29
2019-02-23T11:36:16.746Z,1004.31
2019-02-23T11:37:16.696Z,1004.28
2019-02-23T11:38:16.629Z,1004.27
2019-02-23T11:39:16.562Z,1004.27
2019-02-23T11:40:16.504Z,1004.24
2019-02-23T11:41:16.442Z,1004.19
2019-02-23T11:42:16.380Z,1004.24
2019-02-23T11:43:16.320Z,1004.15
2019-02-23T11:44:16.260Z,1004.13
2019-02-23T11:45:16.202Z,1004.11
2019-02-23T11:46:16.139Z,1004.13
2019-02-23T11:47:16.076Z,1004.06
2019-02-23T11:48:16.019Z,1004.06
2019-02-23T11:49:15.956Z,1004.03
2019-02-23T11:50:15.896Z,1004.01
2019-02-23T11:51:15.840Z,1004.00
2019-02-23T11:52:15.773Z,1003.98
2019-02-23T11:53:15.714Z,1004.09
2019-02-23T11:54:15.651Z,1004.00
2019-02-23T11:55:15.593Z,1004.05
2019-02-23T11:56:15.530Z,1004.09
2019-02-23T11:57:15.471Z,1003.99
2019-02-23T11:58:15.409Z,1004.00
2019-02-23T11:59:15.348Z,1003.95
2019-02-23T12:00:15.288Z,1004.01
2019-02-23T12:01:15.228Z,1004.05
2019-02-23T12:02:15.166Z,1004.04
2019-02-23T12:03:15.107Z,1004.12
2019-02-23T12:04:15.051Z,1004.06
2019-02-23T12:05:14.991Z,1004.17